sensor_id;sensor_type;location;lat;lon;timestamp;temperature;humidity
82788;DHT22;72529;51.786;4.662;2023-10-19T00:00:46;14.58;86.74
82788;DHT22;72529;51.786;4.662;2023-10-19T00:03:17;14.64;86.65
82788;DHT22;72529;51.786;4.662;2023-10-19T00:05:43;14.61;86.94
82788;DHT22;72529;51.786;4.662;2023-10-19T00:08:11;14.64;86.94
82788;DHT22;72529;51.786;4.662;2023-10-19T00:10:48;14.68;86.81
82788;DHT22;72529;51.786;4.662;2023-10-19T00:13:20;14.71;86.94
82788;DHT22;72529;51.786;4.662;2023-10-19T00:15:47;14.74;87.07
82788;DHT22;72529;51.786;4.662;2023-10-19T00:18:18;14.86;86.82
82788;DHT22;72529;51.786;4.662;2023-10-19T00:20:46;14.84;87.02
82788;DHT22;72529;51.786;4.662;2023-10-19T00:23:15;14.86;87.13
82788;DHT22;72529;51.786;4.662;2023-10-19T00:26:01;14.92;86.98
82788;DHT22;72529;51.786;4.662;2023-10-19T00:28:34;14.96;86.96
82788;DHT22;72529;51.786;4.662;2023-10-19T00:31:04;14.96;87.22
82788;DHT22;72529;51.786;4.662;2023-10-19T00:33:34;15.03;86.89
82788;DHT22;72529;51.786;4.662;2023-10-19T00:36:04;15.02;87.06
82788;DHT22;72529;51.786;4.662;2023-10-19T00:38:40;15.05;87.13
82788;DHT22;72529;51.786;4.662;2023-10-19T00:41:22;15.06;87.31
82788;DHT22;72529;51.786;4.662;2023-10-19T00:43:53;15.10;87.31
82788;DHT22;72529;51.786;4.662;2023-10-19T00:46:39;15.16;87.33
82788;DHT22;72529;51.786;4.662;2023-10-19T00:49:08;15.19;87.24
82788;DHT22;72529;51.786;4.662;2023-10-19T00:51:39;15.23;87.41
82788;DHT22;72529;51.786;4.662;2023-10-19T00:54:16;15.29;87.62
82788;DHT22;72529;51.786;4.662;2023-10-19T00:56:47;15.35;88.10
82788;DHT22;72529;51.786;4.662;2023-10-19T00:59:22;15.39;88.09
82788;DHT22;72529;51.786;4.662;2023-10-19T01:01:53;15.61;88.51
82788;DHT22;72529;51.786;4.662;2023-10-19T01:04:22;15.81;88.64
82788;DHT22;72529;51.786;4.662;2023-10-19T01:06:56;15.98;88.92
82788;DHT22;72529;51.786;4.662;2023-10-19T01:09:37;16.07;88.65
82788;DHT22;72529;51.786;4.662;2023-10-19T01:12:04;16.15;88.44
82788;DHT22;72529;51.786;4.662;2023-10-19T01:15:05;16.25;88.37
82788;DHT22;72529;51.786;4.662;2023-10-19T01:17:34;16.35;88.15
82788;DHT22;72529;51.786;4.662;2023-10-19T01:20:07;16.41;87.59
82788;DHT22;72529;51.786;4.662;2023-10-19T01:23:06;16.41;87.88
82788;DHT22;72529;51.786;4.662;2023-10-19T01:25:53;16.45;87.74
82788;DHT22;72529;51.786;4.662;2023-10-19T01:28:31;16.51;87.33
82788;DHT22;72529;51.786;4.662;2023-10-19T01:31:06;16.54;87.09
82788;DHT22;72529;51.786;4.662;2023-10-19T01:33:32;16.56;87.28
82788;DHT22;72529;51.786;4.662;2023-10-19T01:35:59;16.59;87.24
82788;DHT22;72529;51.786;4.662;2023-10-19T01:38:41;16.71;86.76
82788;DHT22;72529;51.786;4.662;2023-10-19T01:41:08;16.65;86.57
82788;DHT22;72529;51.786;4.662;2023-10-19T01:43:48;16.66;86.58
82788;DHT22;72529;51.786;4.662;2023-10-19T01:46:15;16.68;86.35
82788;DHT22;72529;51.786;4.662;2023-10-19T01:48:53;16.69;86.29
82788;DHT22;72529;51.786;4.662;2023-10-19T01:51:26;16.72;86.42
82788;DHT22;72529;51.786;4.662;2023-10-19T01:53:53;16.73;86.27
82788;DHT22;72529;51.786;4.662;2023-10-19T01:56:21;16.76;86.03
82788;DHT22;72529;51.786;4.662;2023-10-19T01:58:48;16.72;86.41
82788;DHT22;72529;51.786;4.662;2023-10-19T02:01:15;16.72;86.47
82788;DHT22;72529;51.786;4.662;2023-10-19T02:03:54;16.71;86.28
82788;DHT22;72529;51.786;4.662;2023-10-19T02:06:23;16.71;86.27
82788;DHT22;72529;51.786;4.662;2023-10-19T02:09:01;16.69;86.16
82788;DHT22;72529;51.786;4.662;2023-10-19T02:11:35;16.66;85.86
82788;DHT22;72529;51.786;4.662;2023-10-19T02:14:03;16.66;85.94
82788;DHT22;72529;51.786;4.662;2023-10-19T02:16:39;16.75;85.73
82788;DHT22;72529;51.786;4.662;2023-10-19T02:19:05;16.71;85.68
82788;DHT22;72529;51.786;4.662;2023-10-19T02:21:30;16.69;85.80
82788;DHT22;72529;51.786;4.662;2023-10-19T02:23:56;16.71;85.69
82788;DHT22;72529;51.786;4.662;2023-10-19T02:26:23;16.75;85.43
82788;DHT22;72529;51.786;4.662;2023-10-19T02:28:52;16.71;85.45
82788;DHT22;72529;51.786;4.662;2023-10-19T02:31:19;16.73;85.33
82788;DHT22;72529;51.786;4.662;2023-10-19T02:33:47;16.71;85.35
82788;DHT22;72529;51.786;4.662;2023-10-19T02:36:29;16.75;84.77
82788;DHT22;72529;51.786;4.662;2023-10-19T02:38:55;16.71;84.94
82788;DHT22;72529;51.786;4.662;2023-10-19T02:41:25;16.71;84.78
82788;DHT22;72529;51.786;4.662;2023-10-19T02:43:53;16.73;84.72
82788;DHT22;72529;51.786;4.662;2023-10-19T02:46:53;16.62;84.82
82788;DHT22;72529;51.786;4.662;2023-10-19T02:49:24;16.65;84.54
82788;DHT22;72529;51.786;4.662;2023-10-19T02:51:52;16.64;84.49
82788;DHT22;72529;51.786;4.662;2023-10-19T02:54:21;16.69;84.27
82788;DHT22;72529;51.786;4.662;2023-10-19T02:56:53;16.64;84.22
82788;DHT22;72529;51.786;4.662;2023-10-19T02:59:20;16.66;83.98
82788;DHT22;72529;51.786;4.662;2023-10-19T03:04:16;16.56;83.88
82788;DHT22;72529;51.786;4.662;2023-10-19T03:06:41;16.56;84.09
82788;DHT22;72529;51.786;4.662;2023-10-19T03:09:08;16.52;83.88
82788;DHT22;72529;51.786;4.662;2023-10-19T03:12:06;16.54;83.97
82788;DHT22;72529;51.786;4.662;2023-10-19T03:14:35;16.59;83.38
82788;DHT22;72529;51.786;4.662;2023-10-19T03:17:03;16.56;83.09
82788;DHT22;72529;51.786;4.662;2023-10-19T03:19:29;16.58;83.09
82788;DHT22;72529;51.786;4.662;2023-10-19T03:21:55;16.65;82.51
82788;DHT22;72529;51.786;4.662;2023-10-19T03:24:25;16.56;82.48
82788;DHT22;72529;51.786;4.662;2023-10-19T03:27:15;16.58;81.80
82788;DHT22;72529;51.786;4.662;2023-10-19T03:29:42;16.52;82.12
82788;DHT22;72529;51.786;4.662;2023-10-19T03:32:11;16.48;82.02
82788;DHT22;72529;51.786;4.662;2023-10-19T03:34:38;16.40;82.18
82788;DHT22;72529;51.786;4.662;2023-10-19T03:37:04;16.35;82.17
82788;DHT22;72529;51.786;4.662;2023-10-19T03:39:37;16.32;82.16
82788;DHT22;72529;51.786;4.662;2023-10-19T03:42:04;16.25;82.23
82788;DHT22;72529;51.786;4.662;2023-10-19T03:44:32;16.25;82.31
82788;DHT22;72529;51.786;4.662;2023-10-19T03:47:24;16.22;82.05
82788;DHT22;72529;51.786;4.662;2023-10-19T03:50:03;16.17;82.27
82788;DHT22;72529;51.786;4.662;2023-10-19T03:52:40;16.14;82.38
82788;DHT22;72529;51.786;4.662;2023-10-19T03:55:07;16.11;82.47
82788;DHT22;72529;51.786;4.662;2023-10-19T03:57:45;16.08;82.53
82788;DHT22;72529;51.786;4.662;2023-10-19T04:00:16;16.05;82.64
82788;DHT22;72529;51.786;4.662;2023-10-19T04:02:43;16.05;82.65
82788;DHT22;72529;51.786;4.662;2023-10-19T04:05:09;16.04;82.56
82788;DHT22;72529;51.786;4.662;2023-10-19T04:07:50;16.03;82.54
82788;DHT22;72529;51.786;4.662;2023-10-19T04:10:23;16.04;82.34
82788;DHT22;72529;51.786;4.662;2023-10-19T04:12:55;16.01;82.29
82788;DHT22;72529;51.786;4.662;2023-10-19T04:15:20;15.97;82.57
82788;DHT22;72529;51.786;4.662;2023-10-19T04:17:48;16.00;82.35
82788;DHT22;72529;51.786;4.662;2023-10-19T04:20:18;16.00;82.35
82788;DHT22;72529;51.786;4.662;2023-10-19T04:25:09;15.98;82.33
82788;DHT22;72529;51.786;4.662;2023-10-19T04:27:45;15.94;82.41
82788;DHT22;72529;51.786;4.662;2023-10-19T04:30:15;15.90;82.59
82788;DHT22;72529;51.786;4.662;2023-10-19T04:32:45;15.91;82.66
82788;DHT22;72529;51.786;4.662;2023-10-19T04:35:12;15.94;82.45
82788;DHT22;72529;51.786;4.662;2023-10-19T04:37:53;15.94;82.59
82788;DHT22;72529;51.786;4.662;2023-10-19T04:40:20;15.93;82.63
82788;DHT22;72529;51.786;4.662;2023-10-19T04:42:46;15.96;82.55
82788;DHT22;72529;51.786;4.662;2023-10-19T04:45:12;16.03;82.44
82788;DHT22;72529;51.786;4.662;2023-10-19T04:47:38;16.04;82.39
82788;DHT22;72529;51.786;4.662;2023-10-19T04:50:07;16.07;82.38
82788;DHT22;72529;51.786;4.662;2023-10-19T04:52:36;16.07;82.45
82788;DHT22;72529;51.786;4.662;2023-10-19T04:55:02;16.08;82.20
82788;DHT22;72529;51.786;4.662;2023-10-19T04:57:27;16.04;82.58
82788;DHT22;72529;51.786;4.662;2023-10-19T04:59:53;16.01;82.62
82788;DHT22;72529;51.786;4.662;2023-10-19T05:02:18;16.01;82.88
82788;DHT22;72529;51.786;4.662;2023-10-19T05:04:44;16.08;82.65
82788;DHT22;72529;51.786;4.662;2023-10-19T05:07:10;16.07;82.53
82788;DHT22;72529;51.786;4.662;2023-10-19T05:09:43;16.08;82.68
82788;DHT22;72529;51.786;4.662;2023-10-19T05:12:09;16.08;82.74
82788;DHT22;72529;51.786;4.662;2023-10-19T05:14:42;16.14;82.18
82788;DHT22;72529;51.786;4.662;2023-10-19T05:17:08;16.14;82.30
82788;DHT22;72529;51.786;4.662;2023-10-19T05:19:36;16.13;82.42
82788;DHT22;72529;51.786;4.662;2023-10-19T05:22:04;16.14;82.56
82788;DHT22;72529;51.786;4.662;2023-10-19T05:24:31;16.14;82.45
82788;DHT22;72529;51.786;4.662;2023-10-19T05:26:57;16.17;82.41
82788;DHT22;72529;51.786;4.662;2023-10-19T05:29:23;16.17;82.30
82788;DHT22;72529;51.786;4.662;2023-10-19T05:31:51;16.20;82.26
82788;DHT22;72529;51.786;4.662;2023-10-19T05:34:22;16.15;82.53
82788;DHT22;72529;51.786;4.662;2023-10-19T05:36:48;16.17;82.72
82788;DHT22;72529;51.786;4.662;2023-10-19T05:39:18;16.18;82.55
82788;DHT22;72529;51.786;4.662;2023-10-19T05:41:43;16.15;82.83
82788;DHT22;72529;51.786;4.662;2023-10-19T05:44:09;16.11;82.81
82788;DHT22;72529;51.786;4.662;2023-10-19T05:46:35;16.13;82.80
82788;DHT22;72529;51.786;4.662;2023-10-19T05:49:02;16.17;82.65
82788;DHT22;72529;51.786;4.662;2023-10-19T05:51:29;16.14;83.09
82788;DHT22;72529;51.786;4.662;2023-10-19T05:53:55;16.15;82.74
82788;DHT22;72529;51.786;4.662;2023-10-19T05:56:27;16.17;82.95
82788;DHT22;72529;51.786;4.662;2023-10-19T05:58:53;16.18;82.87
82788;DHT22;72529;51.786;4.662;2023-10-19T06:01:19;16.18;82.94
82788;DHT22;72529;51.786;4.662;2023-10-19T06:03:45;16.21;82.95
82788;DHT22;72529;51.786;4.662;2023-10-19T06:06:10;16.21;82.88
82788;DHT22;72529;51.786;4.662;2023-10-19T06:08:36;16.22;82.88
82788;DHT22;72529;51.786;4.662;2023-10-19T06:11:01;16.24;82.86
82788;DHT22;72529;51.786;4.662;2023-10-19T06:13:28;16.24;82.87
82788;DHT22;72529;51.786;4.662;2023-10-19T06:15:54;16.31;82.64
82788;DHT22;72529;51.786;4.662;2023-10-19T06:18:20;16.29;82.74
82788;DHT22;72529;51.786;4.662;2023-10-19T06:20:46;16.29;82.79
82788;DHT22;72529;51.786;4.662;2023-10-19T06:23:12;16.32;82.70
82788;DHT22;72529;51.786;4.662;2023-10-19T06:25:38;16.34;82.66
82788;DHT22;72529;51.786;4.662;2023-10-19T06:28:04;16.36;82.57
82788;DHT22;72529;51.786;4.662;2023-10-19T06:30:31;16.36;82.47
82788;DHT22;72529;51.786;4.662;2023-10-19T06:32:59;16.41;82.38
82788;DHT22;72529;51.786;4.662;2023-10-19T06:35:29;16.47;82.09
82788;DHT22;72529;51.786;4.662;2023-10-19T06:37:57;16.47;82.11
82788;DHT22;72529;51.786;4.662;2023-10-19T06:40:24;16.42;82.44
82788;DHT22;72529;51.786;4.662;2023-10-19T06:42:54;16.42;82.46
82788;DHT22;72529;51.786;4.662;2023-10-19T06:45:21;16.40;82.62
82788;DHT22;72529;51.786;4.662;2023-10-19T06:47:48;16.42;82.56
82788;DHT22;72529;51.786;4.662;2023-10-19T06:50:19;16.34;82.81
82788;DHT22;72529;51.786;4.662;2023-10-19T06:52:46;16.38;82.83
82788;DHT22;72529;51.786;4.662;2023-10-19T06:55:16;16.42;82.81
82788;DHT22;72529;51.786;4.662;2023-10-19T06:57:44;16.38;82.78
82788;DHT22;72529;51.786;4.662;2023-10-19T07:00:14;16.40;83.02
82788;DHT22;72529;51.786;4.662;2023-10-19T07:02:41;16.44;82.76
82788;DHT22;72529;51.786;4.662;2023-10-19T07:05:07;16.42;82.82
82788;DHT22;72529;51.786;4.662;2023-10-19T07:07:44;16.47;82.63
82788;DHT22;72529;51.786;4.662;2023-10-19T07:10:12;16.52;82.59
82788;DHT22;72529;51.786;4.662;2023-10-19T07:12:39;16.49;82.52
82788;DHT22;72529;51.786;4.662;2023-10-19T07:15:06;16.44;82.84
82788;DHT22;72529;51.786;4.662;2023-10-19T07:17:42;16.49;82.83
82788;DHT22;72529;51.786;4.662;2023-10-19T07:20:09;16.48;82.87
82788;DHT22;72529;51.786;4.662;2023-10-19T07:22:47;16.47;82.80
82788;DHT22;72529;51.786;4.662;2023-10-19T07:25:13;16.54;82.78
82788;DHT22;72529;51.786;4.662;2023-10-19T07:27:38;16.51;82.90
82788;DHT22;72529;51.786;4.662;2023-10-19T07:30:09;16.56;82.97
82788;DHT22;72529;51.786;4.662;2023-10-19T07:32:35;16.62;82.95
82788;DHT22;72529;51.786;4.662;2023-10-19T07:35:01;16.65;82.73
82788;DHT22;72529;51.786;4.662;2023-10-19T07:37:26;16.75;82.57
82788;DHT22;72529;51.786;4.662;2023-10-19T07:39:54;16.72;82.59
82788;DHT22;72529;51.786;4.662;2023-10-19T07:42:22;16.73;82.65
82788;DHT22;72529;51.786;4.662;2023-10-19T07:44:48;16.72;82.67
82788;DHT22;72529;51.786;4.662;2023-10-19T07:47:14;16.72;82.86
82788;DHT22;72529;51.786;4.662;2023-10-19T07:49:40;16.72;82.85
82788;DHT22;72529;51.786;4.662;2023-10-19T07:52:06;16.75;82.87
82788;DHT22;72529;51.786;4.662;2023-10-19T07:54:33;16.76;83.02
82788;DHT22;72529;51.786;4.662;2023-10-19T07:56:59;16.76;82.70
82788;DHT22;72529;51.786;4.662;2023-10-19T07:59:29;16.76;82.99
82788;DHT22;72529;51.786;4.662;2023-10-19T08:01:54;16.82;82.83
82788;DHT22;72529;51.786;4.662;2023-10-19T08:04:19;16.89;82.62
82788;DHT22;72529;51.786;4.662;2023-10-19T08:06:45;16.95;82.62
82788;DHT22;72529;51.786;4.662;2023-10-19T08:09:12;17.02;82.22
82788;DHT22;72529;51.786;4.662;2023-10-19T08:11:37;17.05;82.09
82788;DHT22;72529;51.786;4.662;2023-10-19T08:14:03;17.07;82.19
82788;DHT22;72529;51.786;4.662;2023-10-19T08:16:28;17.09;82.25
82788;DHT22;72529;51.786;4.662;2023-10-19T08:18:53;17.15;82.47
82788;DHT22;72529;51.786;4.662;2023-10-19T08:21:19;17.17;82.42
82788;DHT22;72529;51.786;4.662;2023-10-19T08:23:44;17.26;81.93
82788;DHT22;72529;51.786;4.662;2023-10-19T08:26:11;17.26;81.85
82788;DHT22;72529;51.786;4.662;2023-10-19T08:28:36;17.27;82.44
82788;DHT22;72529;51.786;4.662;2023-10-19T08:31:02;17.30;81.84
82788;DHT22;72529;51.786;4.662;2023-10-19T08:33:28;17.29;81.88
82788;DHT22;72529;51.786;4.662;2023-10-19T08:35:57;17.30;81.94
82788;DHT22;72529;51.786;4.662;2023-10-19T08:38:25;17.37;81.91
82788;DHT22;72529;51.786;4.662;2023-10-19T08:40:51;17.37;81.73
82788;DHT22;72529;51.786;4.662;2023-10-19T08:43:20;17.44;81.91
82788;DHT22;72529;51.786;4.662;2023-10-19T08:45:47;17.46;81.77
82788;DHT22;72529;51.786;4.662;2023-10-19T08:48:12;17.50;81.15
82788;DHT22;72529;51.786;4.662;2023-10-19T08:50:39;17.51;81.65
82788;DHT22;72529;51.786;4.662;2023-10-19T08:53:07;17.59;81.15
82788;DHT22;72529;51.786;4.662;2023-10-19T08:55:38;17.64;81.53
82788;DHT22;72529;51.786;4.662;2023-10-19T08:58:04;17.70;81.06
82788;DHT22;72529;51.786;4.662;2023-10-19T09:00:45;17.77;80.74
82788;DHT22;72529;51.786;4.662;2023-10-19T09:03:13;17.81;81.05
82788;DHT22;72529;51.786;4.662;2023-10-19T09:05:40;17.97;80.88
82788;DHT22;72529;51.786;4.662;2023-10-19T09:08:06;18.11;80.86
82788;DHT22;72529;51.786;4.662;2023-10-19T09:10:31;18.26;80.83
82788;DHT22;72529;51.786;4.662;2023-10-19T09:13:07;18.31;79.94
82788;DHT22;72529;51.786;4.662;2023-10-19T09:15:39;18.35;79.80
82788;DHT22;72529;51.786;4.662;2023-10-19T09:18:15;18.44;79.36
82788;DHT22;72529;51.786;4.662;2023-10-19T09:20:43;18.35;79.85
82788;DHT22;72529;51.786;4.662;2023-10-19T09:23:21;18.38;80.23
82788;DHT22;72529;51.786;4.662;2023-10-19T09:25:49;18.34;79.38
82788;DHT22;72529;51.786;4.662;2023-10-19T09:28:14;18.31;80.41
82788;DHT22;72529;51.786;4.662;2023-10-19T09:30:40;18.35;79.37
82788;DHT22;72529;51.786;4.662;2023-10-19T09:33:09;18.28;79.26
82788;DHT22;72529;51.786;4.662;2023-10-19T09:35:34;18.24;79.65
82788;DHT22;72529;51.786;4.662;2023-10-19T09:38:02;18.28;79.39
82788;DHT22;72529;51.786;4.662;2023-10-19T09:40:30;18.28;79.31
82788;DHT22;72529;51.786;4.662;2023-10-19T09:42:58;18.29;80.05
82788;DHT22;72529;51.786;4.662;2023-10-19T09:45:27;18.38;79.75
82788;DHT22;72529;51.786;4.662;2023-10-19T09:47:55;18.46;79.24
82788;DHT22;72529;51.786;4.662;2023-10-19T09:50:21;18.46;79.41
82788;DHT22;72529;51.786;4.662;2023-10-19T09:52:48;18.49;79.52
82788;DHT22;72529;51.786;4.662;2023-10-19T09:55:32;18.60;79.25
82788;DHT22;72529;51.786;4.662;2023-10-19T09:58:04;18.59;79.63
82788;DHT22;72529;51.786;4.662;2023-10-19T10:00:31;18.72;79.31
82788;DHT22;72529;51.786;4.662;2023-10-19T10:02:57;18.76;79.48
82788;DHT22;72529;51.786;4.662;2023-10-19T10:10:51;18.85;79.08
82788;DHT22;72529;51.786;4.662;2023-10-19T10:15:58;18.92;78.44
82788;DHT22;72529;51.786;4.662;2023-10-19T10:18:30;18.93;77.75
82788;DHT22;72529;51.786;4.662;2023-10-19T10:23:48;19.00;77.85
82788;DHT22;72529;51.786;4.662;2023-10-19T10:26:15;19.08;78.05
82788;DHT22;72529;51.786;4.662;2023-10-19T10:28:46;19.31;78.35
82788;DHT22;72529;51.786;4.662;2023-10-19T10:31:19;19.37;78.05
82788;DHT22;72529;51.786;4.662;2023-10-19T10:33:47;19.47;77.00
82788;DHT22;72529;51.786;4.662;2023-10-19T10:36:16;19.51;76.72
82788;DHT22;72529;51.786;4.662;2023-10-19T10:38:43;19.43;76.74
82788;DHT22;72529;51.786;4.662;2023-10-19T10:41:09;19.50;76.91
82788;DHT22;72529;51.786;4.662;2023-10-19T10:43:50;19.51;77.28
82788;DHT22;72529;51.786;4.662;2023-10-19T10:46:19;19.43;76.84
82788;DHT22;72529;51.786;4.662;2023-10-19T10:48:45;19.34;77.31
82788;DHT22;72529;51.786;4.662;2023-10-19T10:51:25;19.35;76.24
82788;DHT22;72529;51.786;4.662;2023-10-19T10:53:53;19.28;77.28
82788;DHT22;72529;51.786;4.662;2023-10-19T10:56:21;19.34;77.65
82788;DHT22;72529;51.786;4.662;2023-10-19T10:58:47;19.37;77.59
82788;DHT22;72529;51.786;4.662;2023-10-19T11:01:12;19.35;78.25
82788;DHT22;72529;51.786;4.662;2023-10-19T11:03:41;19.41;76.97
82788;DHT22;72529;51.786;4.662;2023-10-19T11:06:11;19.43;76.98
82788;DHT22;72529;51.786;4.662;2023-10-19T11:08:38;19.57;75.72
82788;DHT22;72529;51.786;4.662;2023-10-19T11:11:08;19.53;75.68
82788;DHT22;72529;51.786;4.662;2023-10-19T11:13:37;19.58;76.37
82788;DHT22;72529;51.786;4.662;2023-10-19T11:16:05;19.60;76.24
82788;DHT22;72529;51.786;4.662;2023-10-19T11:18:38;19.61;76.60
82788;DHT22;72529;51.786;4.662;2023-10-19T11:21:12;19.71;76.91
82788;DHT22;72529;51.786;4.662;2023-10-19T11:23:45;19.65;76.44
82788;DHT22;72529;51.786;4.662;2023-10-19T11:26:13;19.65;76.55
82788;DHT22;72529;51.786;4.662;2023-10-19T11:28:39;19.65;75.45
82788;DHT22;72529;51.786;4.662;2023-10-19T11:31:16;19.55;75.90
82788;DHT22;72529;51.786;4.662;2023-10-19T11:33:44;19.44;77.28
82788;DHT22;72529;51.786;4.662;2023-10-19T11:36:11;19.40;76.88
82788;DHT22;72529;51.786;4.662;2023-10-19T11:38:44;19.38;76.87
82788;DHT22;72529;51.786;4.662;2023-10-19T11:41:11;19.37;76.87
82788;DHT22;72529;51.786;4.662;2023-10-19T11:43:39;19.31;77.88
82788;DHT22;72529;51.786;4.662;2023-10-19T11:46:05;19.37;77.43
82788;DHT22;72529;51.786;4.662;2023-10-19T11:48:35;19.34;77.54
82788;DHT22;72529;51.786;4.662;2023-10-19T11:51:04;19.31;78.26
82788;DHT22;72529;51.786;4.662;2023-10-19T11:53:32;19.34;77.75
82788;DHT22;72529;51.786;4.662;2023-10-19T11:56:07;19.23;78.21
82788;DHT22;72529;51.786;4.662;2023-10-19T11:58:36;19.17;78.35
82788;DHT22;72529;51.786;4.662;2023-10-19T12:01:04;19.16;77.50
82788;DHT22;72529;51.786;4.662;2023-10-19T12:03:41;19.08;78.51
82788;DHT22;72529;51.786;4.662;2023-10-19T12:06:10;19.04;78.76
82788;DHT22;72529;51.786;4.662;2023-10-19T12:08:36;19.03;79.09
82788;DHT22;72529;51.786;4.662;2023-10-19T12:11:03;19.03;78.60
82788;DHT22;72529;51.786;4.662;2023-10-19T12:13:41;19.03;78.56
82788;DHT22;72529;51.786;4.662;2023-10-19T12:16:12;19.04;78.67
82788;DHT22;72529;51.786;4.662;2023-10-19T12:18:44;19.00;78.02
82788;DHT22;72529;51.786;4.662;2023-10-19T12:21:10;18.90;78.92
82788;DHT22;72529;51.786;4.662;2023-10-19T12:23:40;18.89;78.19
82788;DHT22;72529;51.786;4.662;2023-10-19T12:26:06;18.95;79.30
82788;DHT22;72529;51.786;4.662;2023-10-19T12:28:40;18.93;78.86
82788;DHT22;72529;51.786;4.662;2023-10-19T12:31:07;18.96;78.34
82788;DHT22;72529;51.786;4.662;2023-10-19T12:33:36;18.95;78.44
82788;DHT22;72529;51.786;4.662;2023-10-19T12:36:04;18.97;78.91
82788;DHT22;72529;51.786;4.662;2023-10-19T12:38:49;19.02;78.40
82788;DHT22;72529;51.786;4.662;2023-10-19T12:41:15;18.93;78.25
82788;DHT22;72529;51.786;4.662;2023-10-19T12:43:40;19.03;78.63
82788;DHT22;72529;51.786;4.662;2023-10-19T12:46:07;19.02;78.72
82788;DHT22;72529;51.786;4.662;2023-10-19T12:48:34;19.04;78.81
82788;DHT22;72529;51.786;4.662;2023-10-19T12:51:04;19.04;79.12
82788;DHT22;72529;51.786;4.662;2023-10-19T12:53:32;19.06;78.50
82788;DHT22;72529;51.786;4.662;2023-10-19T12:55:58;19.03;78.83
82788;DHT22;72529;51.786;4.662;2023-10-19T12:58:24;19.00;79.48
82788;DHT22;72529;51.786;4.662;2023-10-19T13:00:53;19.00;80.10
82788;DHT22;72529;51.786;4.662;2023-10-19T13:03:20;18.96;79.77
82788;DHT22;72529;51.786;4.662;2023-10-19T13:05:47;18.82;80.76
82788;DHT22;72529;51.786;4.662;2023-10-19T13:08:15;18.86;80.91
82788;DHT22;72529;51.786;4.662;2023-10-19T13:10:43;18.80;81.29
82788;DHT22;72529;51.786;4.662;2023-10-19T13:13:11;18.73;80.56
82788;DHT22;72529;51.786;4.662;2023-10-19T13:15:39;18.79;81.25
82788;DHT22;72529;51.786;4.662;2023-10-19T13:18:06;18.75;80.79
82788;DHT22;72529;51.786;4.662;2023-10-19T13:20:33;18.77;80.95
82788;DHT22;72529;51.786;4.662;2023-10-19T13:23:06;18.75;80.90
82788;DHT22;72529;51.786;4.662;2023-10-19T13:25:35;18.70;81.01
82788;DHT22;72529;51.786;4.662;2023-10-19T13:28:11;18.69;81.15
82788;DHT22;72529;51.786;4.662;2023-10-19T13:30:49;18.60;81.01
82788;DHT22;72529;51.786;4.662;2023-10-19T13:33:17;18.52;81.68
82788;DHT22;72529;51.786;4.662;2023-10-19T13:35:45;18.51;81.31
82788;DHT22;72529;51.786;4.662;2023-10-19T13:38:11;18.46;81.72
82788;DHT22;72529;51.786;4.662;2023-10-19T13:40:40;18.38;82.18
82788;DHT22;72529;51.786;4.662;2023-10-19T13:43:08;18.39;82.48
82788;DHT22;72529;51.786;4.662;2023-10-19T13:45:35;18.31;82.67
82788;DHT22;72529;51.786;4.662;2023-10-19T13:48:05;18.28;82.82
82788;DHT22;72529;51.786;4.662;2023-10-19T13:50:31;18.29;82.92
82788;DHT22;72529;51.786;4.662;2023-10-19T13:52:58;18.26;82.81
82788;DHT22;72529;51.786;4.662;2023-10-19T13:55:26;18.28;83.02
82788;DHT22;72529;51.786;4.662;2023-10-19T13:57:52;18.28;83.01
82788;DHT22;72529;51.786;4.662;2023-10-19T14:00:20;18.18;83.20
82788;DHT22;72529;51.786;4.662;2023-10-19T14:03:06;18.19;83.20
82788;DHT22;72529;51.786;4.662;2023-10-19T14:05:40;18.05;83.37
82788;DHT22;72529;51.786;4.662;2023-10-19T14:08:08;18.04;83.23
82788;DHT22;72529;51.786;4.662;2023-10-19T14:10:35;18.05;83.55
82788;DHT22;72529;51.786;4.662;2023-10-19T14:13:01;18.02;83.65
82788;DHT22;72529;51.786;4.662;2023-10-19T14:15:27;17.98;83.77
82788;DHT22;72529;51.786;4.662;2023-10-19T14:17:56;18.01;83.60
82788;DHT22;72529;51.786;4.662;2023-10-19T14:20:25;18.05;83.67
82788;DHT22;72529;51.786;4.662;2023-10-19T14:22:51;18.09;83.70
82788;DHT22;72529;51.786;4.662;2023-10-19T14:25:21;18.05;84.03
82788;DHT22;72529;51.786;4.662;2023-10-19T14:27:50;18.11;83.96
82788;DHT22;72529;51.786;4.662;2023-10-19T14:30:18;18.16;83.55
82788;DHT22;72529;51.786;4.662;2023-10-19T14:32:47;18.25;83.86
82788;DHT22;72529;51.786;4.662;2023-10-19T14:35:15;18.34;83.70
82788;DHT22;72529;51.786;4.662;2023-10-19T14:37:42;18.51;84.12
82788;DHT22;72529;51.786;4.662;2023-10-19T14:40:10;18.67;83.58
82788;DHT22;72529;51.786;4.662;2023-10-19T14:42:39;18.76;82.65
82788;DHT22;72529;51.786;4.662;2023-10-19T14:45:12;18.76;82.46
82788;DHT22;72529;51.786;4.662;2023-10-19T14:47:40;18.69;82.18
82788;DHT22;72529;51.786;4.662;2023-10-19T14:50:13;18.60;82.16
82788;DHT22;72529;51.786;4.662;2023-10-19T14:52:42;18.55;81.73
82788;DHT22;72529;51.786;4.662;2023-10-19T14:55:09;18.49;82.35
82788;DHT22;72529;51.786;4.662;2023-10-19T14:57:36;18.34;82.65
82788;DHT22;72529;51.786;4.662;2023-10-19T15:00:06;18.31;82.66
82788;DHT22;72529;51.786;4.662;2023-10-19T15:02:51;18.24;82.70
82788;DHT22;72529;51.786;4.662;2023-10-19T15:05:17;18.21;82.91
82788;DHT22;72529;51.786;4.662;2023-10-19T15:07:45;18.22;83.12
82788;DHT22;72529;51.786;4.662;2023-10-19T15:10:12;18.28;83.13
82788;DHT22;72529;51.786;4.662;2023-10-19T15:12:39;18.34;83.08
82788;DHT22;72529;51.786;4.662;2023-10-19T15:15:06;18.39;82.40
82788;DHT22;72529;51.786;4.662;2023-10-19T15:17:33;18.41;82.65
82788;DHT22;72529;51.786;4.662;2023-10-19T15:19:58;18.44;82.87
82788;DHT22;72529;51.786;4.662;2023-10-19T15:22:24;18.48;82.41
82788;DHT22;72529;51.786;4.662;2023-10-19T15:24:52;18.44;82.22
82788;DHT22;72529;51.786;4.662;2023-10-19T15:27:18;18.46;82.74
82788;DHT22;72529;51.786;4.662;2023-10-19T15:29:44;18.49;82.63
82788;DHT22;72529;51.786;4.662;2023-10-19T15:32:10;18.51;82.63
82788;DHT22;72529;51.786;4.662;2023-10-19T15:34:36;18.45;82.30
82788;DHT22;72529;51.786;4.662;2023-10-19T15:37:01;18.45;82.79
82788;DHT22;72529;51.786;4.662;2023-10-19T15:39:27;18.42;82.46
82788;DHT22;72529;51.786;4.662;2023-10-19T15:41:53;18.45;82.48
82788;DHT22;72529;51.786;4.662;2023-10-19T15:44:18;18.41;82.57
82788;DHT22;72529;51.786;4.662;2023-10-19T15:46:44;18.41;82.80
82788;DHT22;72529;51.786;4.662;2023-10-19T15:49:11;18.35;82.91
82788;DHT22;72529;51.786;4.662;2023-10-19T15:51:37;18.36;82.94
82788;DHT22;72529;51.786;4.662;2023-10-19T15:54:03;18.39;82.95
82788;DHT22;72529;51.786;4.662;2023-10-19T15:56:30;18.39;82.90
82788;DHT22;72529;51.786;4.662;2023-10-19T15:58:56;18.44;82.69